Flight Track Log - Related Links

Times and Time Zones

All times are in EDT time to prevent confusion due to time zone crossing. See the AAY853 flight status page for this flight to view local times or setup timezone preferences in your user account.

Time Position Orientation Groundspeed Altitude Reporting Facility
EDT Latitude Longitude Course Direction KTS MPH feet Rate Location/Type
Mon 10:36:30 44.6920 -73.4050 90° East 161 185 4,000  Level FlightAware ADS-B
Mon 10:36:44 44.6750 -73.3920 152° Southeast 273 314 4,800 3,667 Climbing FlightAware ADS-B
Mon 10:36:48 44.6700 -73.3890 165° South 278 320 5,100 3,750 Climbing FlightAware ADS-B
Mon 10:37:00 44.6550 -73.3890 187° South 279 321 5,800 462 Climbing FlightAware ADS-B
Mon 10:37:01 44.6656 -73.3886 180° South 281 323 5,200 2,667 Descending Boston Center
Mon 10:37:18 44.6310 -73.3940 190° South 278 320 6,600 3,833 Climbing FlightAware ADS-B
Mon 10:37:37 44.6070 -73.3990 189° South 300 345 7,500 2,927 Climbing FlightAware ADS-B
Mon 10:37:59 44.5800 -73.4050 191° South 294 338 8,600 3,231 Climbing FlightAware ADS-B
Mon 10:38:16 44.5530 -73.4120 190° South 302 348 9,600 1,875 Climbing FlightAware ADS-B
Mon 10:38:47 44.5100 -73.4210 189° South 314 361 10,100 878 Climbing FlightAware ADS-B
Mon 10:39:38 44.4360 -73.4380 190° South 334 384 10,800 1,227 Climbing FlightAware ADS-B
Mon 10:40:15 44.3780 -73.4500 189° South 363 418 11,900 2,523 Climbing FlightAware ADS-B
Mon 10:42:00 44.4474 -73.5000 180° South  Level FlightAware Approximate
Mon 10:42:34 44.1400 -73.5030 190° South 385 443 18,200  Level FlightAware ADS-B
Mon 10:42:37 44.1733 -73.4955 189° South 372 428 17,500 2,381 Descending FlightAware ADS-B
Mon 10:43:37 44.3281 -73.4603 188° South 366 421 20,700 3,143 Climbing FlightAware ADS-B
Mon 10:43:40 44.0240 -73.5290 190° South 391 450 20,800 2,100 Climbing FlightAware ADS-B
Mon 10:44:17 43.9580 -73.5440 190° South 398 458 22,100 2,045 Climbing FlightAware ADS-B
Mon 10:45:08 43.8640 -73.5650 190° South 405 466 23,800 1,862 Climbing FlightAware ADS-B
Mon 10:45:44 43.7960 -73.5790 189° South 413 475 24,800 1,355 Climbing FlightAware ADS-B
Mon 10:46:10 43.7676 -73.5850 189° South 408 470 25,200 1,588 Climbing FlightAware ADS-B
Mon 10:46:18 43.7330 -73.5920 189° South 418 481 25,700 1,568 Climbing FlightAware ADS-B
Mon 10:47:38 43.8348 -73.5711 189° South 450 518 27,500 1,163 Climbing FlightAware ADS-B
Mon 10:47:56 43.5380 -73.6350 189° South 452 520 27,600 1,091 Climbing FlightAware ADS-B
Mon 10:48:44 43.4380 -73.6560 190° South 459 528 28,700 1,322 Climbing FlightAware ADS-B
Mon 10:48:55 43.8348 -73.5711 189° South 462 532 28,900 931 Climbing FlightAware ADS-B
Mon 10:49:42 43.3130 -73.6830 190° South 474 545 29,600 820 Climbing FlightAware ADS-B
Mon 10:51:36 43.1181 -73.7250 189° South 475 547 31,100 1,296 Climbing FlightAware ADS-B
Mon 10:52:24 43.0799 -73.7332 189° South 485 558 33,100 1,642 Climbing FlightAware ADS-B
Mon 10:53:22 42.8392 -73.7844 189° South 487 560 34,000 697 Climbing Boston Center
Mon 10:59:26 42.0807 -74.0179 193° South 466 536 38,000 538 Climbing FlightAware ADS-B
Mon 11:00:48 41.8727 -74.0804 193° South 474 545 38,000 50 Level FlightAware ADS-B (KSNC)
Mon 11:01:25 41.7988 -74.1025 193° South 472 543 38,100 80 Climbing FlightAware ADS-B (KSNC)
Mon 11:02:03 41.7176 -74.1269 193° South 471 542 38,100 -75 Level FlightAware ADS-B (KSNC)
Mon 11:02:45 41.6227 -74.1551 193° South 471 542 38,000 -63 Descending FlightAware ADS-B (KSNC)
Mon 11:03:38 41.5085 -74.1889 193° South 469 540 38,000  Level FlightAware ADS-B (KSNC)
Mon 11:04:11 41.4408 -74.2092 193° South 465 535 38,000  Level FlightAware ADS-B (KSNC)
Mon 11:04:41 41.3768 -74.2283 193° South 463 533 38,000  Level FlightAware ADS-B (KSNC)
Mon 11:05:13 41.3132 -74.2469 192° South 464 534 38,000  Level FlightAware ADS-B (KSNC)
Mon 11:05:43 41.2485 -74.2658 193° South 463 533 38,000  Level FlightAware ADS-B (KSNC)
Mon 11:06:15 41.1793 -74.2861 192° South 464 534 38,000  Level FlightAware ADS-B (KSNC)
Mon 11:06:47 41.1119 -74.3060 192° South 464 534 38,000  Level FlightAware ADS-B (KSNC)
Mon 11:07:19 41.0453 -74.3253 192° South 464 534 38,000  Level FlightAware ADS-B (KSNC)
Mon 11:08:46 40.8720 -74.3962 207° Southwest 444 511 38,000  Level FlightAware ADS-B (KPHL)
Mon 11:09:26 40.8421 -74.4162 213° Southwest 436 502 38,000  Level FlightAware ADS-B (KSNC)
Mon 11:09:59 40.7463 -74.5011 219° Southwest 430 495 38,000  Level FlightAware ADS-B (KPHL)
Mon 11:10:21 40.7155 -74.5369 223° Southwest 425 489 38,000  Level FlightAware ADS-B (KSNC)
Mon 11:10:58 40.6702 -74.5995 230° Southwest 416 479 38,000  Level FlightAware ADS-B (KPHL)
Mon 11:11:29 40.6273 -74.6697 232° Southwest 414 476 38,000 90 Level FlightAware ADS-B (KPHL)
Mon 11:12:05 40.5851 -74.7381 231° Southwest 412 474 38,100  Climbing FlightAware ADS-B
Mon 11:12:38 40.5413 -74.8007 227° Southwest 416 479 38,000 -87 Descending FlightAware ADS-B (KPHL)
Mon 11:13:14 40.4941 -74.8675 227° Southwest 417 480 38,000  Level FlightAware ADS-B (KPHL)
Mon 11:13:52 40.4446 -74.9374 227° Southwest 419 482 38,000  Level FlightAware ADS-B (KPHL)
Mon 11:14:29 40.4007 -74.9991 227° Southwest 419 482 38,000  Level FlightAware ADS-B (KPHL)
Mon 11:15:06 40.3472 -75.0745 227° Southwest 420 483 38,000  Level FlightAware ADS-B
Mon 11:15:44 40.2949 -75.1478 227° Southwest 422 486 38,000  Level FlightAware ADS-B (KPHL)
Mon 11:16:15 40.2551 -75.2035 227° Southwest 421 484 38,000  Level FlightAware ADS-B (KPHL)
Mon 11:16:45 40.2203 -75.2520 227° Southwest 420 483 38,000  Level FlightAware ADS-B (KPHL)
Mon 11:17:24 40.1649 -75.3294 227° Southwest 419 482 38,000  Level FlightAware ADS-B
Mon 11:18:00 40.1207 -75.3907 227° Southwest 420 483 38,000  Level FlightAware ADS-B (KPHL)
Mon 11:18:31 40.0798 -75.4474 227° Southwest 422 486 38,000  Level FlightAware ADS-B (KPHL)
Mon 11:19:02 40.0242 -75.5245 227° Southwest 422 486 38,000  Level FlightAware ADS-B
Mon 11:19:39 39.9866 -75.5764 227° Southwest 422 486 38,000  Level FlightAware ADS-B
Mon 11:20:14 39.9359 -75.6464 227° Southwest 422 486 38,000  Level FlightAware ADS-B (KPHL)
Mon 11:20:31 39.9100 -75.6837 230° Southwest 416 479 38,000  Level FlightAware ADS-B
Mon 11:20:44 39.8961 -75.7063 232° Southwest 414 476 38,000  Level FlightAware ADS-B (KPHL)
Mon 11:21:22 39.8539 -75.7741 231° Southwest 411 473 38,000  Level FlightAware ADS-B
Mon 11:21:54 39.8130 -75.8391 231° Southwest 410 472 38,000  Level FlightAware ADS-B
Mon 11:22:26 39.7763 -75.8975 231° Southwest 408 470 38,000  Level FlightAware ADS-B (KPHL)
Mon 11:22:58 39.7369 -75.9603 231° Southwest 404 465 38,000  Level FlightAware ADS-B
Mon 11:23:28 39.7026 -76.0147 231° Southwest 402 463 38,000  Level FlightAware ADS-B
Mon 11:23:58 39.6663 -76.0723 231° Southwest 399 459 38,000  Level FlightAware ADS-B
Mon 11:24:38 39.6212 -76.1434 231° Southwest 397 457 38,000  Level FlightAware ADS-B
Mon 11:25:09 39.5872 -76.1970 230° Southwest 396 456 38,000  Level FlightAware ADS-B
Mon 11:25:39 39.5477 -76.2576 230° Southwest 397 457 38,000  Level FlightAware ADS-B
Mon 11:26:13 39.5102 -76.3149 230° Southwest 398 458 38,000  Level FlightAware ADS-B (KDAA)
Mon 11:26:19 39.5007 -76.3296 230° Southwest 398 458 38,000  Level FlightAware ADS-B
Mon 11:26:43 39.4727 -76.3727 230° Southwest 399 459 38,000  Level FlightAware ADS-B (KDAA)
Mon 11:26:59 39.4535 -76.4021 230° Southwest 401 461 38,000  Level FlightAware ADS-B (KPHL)
Mon 11:27:13 39.4390 -76.4246 231° Southwest 401 461 38,000  Level FlightAware ADS-B (KDAA)
Mon 11:27:34 39.4113 -76.4684 231° Southwest 402 463 38,000  Level FlightAware ADS-B
Mon 11:27:42 39.4020 -76.4831 231° Southwest 401 461 38,000  Level FlightAware ADS-B (KDAA)
Mon 11:28:08 39.3764 -76.5237 231° Southwest 402 463 38,000  Level FlightAware ADS-B (LFML / MRS)
Mon 11:28:12 39.3668 -76.5391 232° Southwest 402 463 38,000  Level FlightAware ADS-B (KDAA)
Mon 11:28:42 39.3586 -76.5521 232° Southwest 402 463 38,000  Level FlightAware ADS-B (KDAA)
Mon 11:28:46 39.3282 -76.6002 231° Southwest 404 465 38,000  Level FlightAware ADS-B
Mon 11:28:57 39.3214 -76.6110 231° Southwest 403 464 38,000  Level FlightAware ADS-B
Mon 11:29:13 39.2964 -76.6500 231° Southwest 404 465 38,000  Level FlightAware ADS-B (KDAA)
Mon 11:29:41 39.2631 -76.7020 231° Southwest 404 465 38,000  Level FlightAware ADS-B (KDAA)
Mon 11:29:44 39.2596 -76.7074 231° Southwest 404 465 38,000  Level FlightAware ADS-B
Mon 11:30:12 39.2243 -76.7626 231° Southwest 404 465 38,000  Level FlightAware ADS-B (KDAA)
Mon 11:30:24 39.2126 -76.7808 231° Southwest 404 465 38,000  Level FlightAware ADS-B
Mon 11:30:42 39.1896 -76.8167 231° Southwest 403 464 38,000  Level FlightAware ADS-B (KDAA)
Mon 11:31:06 39.1620 -76.8594 230° Southwest 403 464 38,000  Level FlightAware ADS-B
Mon 11:31:12 39.1531 -76.8732 231° Southwest 402 463 38,000  Level FlightAware ADS-B (KDAA)
Mon 11:31:41 39.1201 -76.9244 231° Southwest 403 464 38,000  Level FlightAware ADS-B (KDAA)
Mon 11:31:44 39.1170 -76.9292 230° Southwest 403 464 38,000  Level FlightAware ADS-B
Mon 11:32:12 39.0819 -76.9833 231° Southwest 402 463 38,000  Level FlightAware ADS-B (KDAA)
Mon 11:32:26 39.0662 -77.0071 229° Southwest 406 467 38,000  Level FlightAware ADS-B
Mon 11:32:47 39.0371 -77.0458 224° Southwest 415 478 38,000  Level FlightAware ADS-B (KDAA)
Mon 11:33:27 38.9787 -77.1107 221° Southwest 421 484 38,000  Level FlightAware ADS-B (KDAA)
Mon 11:33:58 38.9330 -77.1611 221° Southwest 422 486 38,000  Level FlightAware ADS-B (KDAA)
Mon 11:34:08 38.9186 -77.1770 221° Southwest 423 487 38,000  Level FlightAware ADS-B (LFML / MRS)
Mon 11:34:27 38.8892 -77.2094 221° Southwest 423 487 38,000  Level FlightAware ADS-B (KDAA)
Mon 11:34:58 38.8440 -77.2592 221° Southwest 424 488 38,000  Level FlightAware ADS-B (KDAA)
Mon 11:35:27 38.7990 -77.3083 221° Southwest 424 488 38,000  Level FlightAware ADS-B (KDAA)
Mon 11:35:45 38.7726 -77.3371 221° Southwest 424 488 38,000  Level FlightAware ADS-B
Mon 11:35:57 38.7569 -77.3543 221° Southwest 424 488 38,000  Level FlightAware ADS-B (KDAA)
Mon 11:36:24 38.7152 -77.3997 221° Southwest 426 490 38,000  Level FlightAware ADS-B
Mon 11:36:27 38.7114 -77.4037 221° Southwest 426 490 38,000  Level FlightAware ADS-B (KDAA)
Mon 11:36:57 38.6653 -77.4540 221° Southwest 428 493 38,000  Level FlightAware ADS-B (KDAA)
Mon 11:37:06 38.6513 -77.4691 221° Southwest 429 494 38,000  Level FlightAware ADS-B
Mon 11:37:27 38.6186 -77.5045 221° Southwest 431 496 38,000  Level FlightAware ADS-B (KDAA)
Mon 11:37:57 38.5740 -77.5527 221° Southwest 431 496 38,000  Level FlightAware ADS-B (KDAA)
Mon 11:38:06 38.5595 -77.5684 221° Southwest 431 496 38,000  Level FlightAware ADS-B
Mon 11:38:27 38.5276 -77.6029 221° Southwest 431 496 38,000  Level FlightAware ADS-B (KDAA)
Mon 11:38:42 38.5049 -77.6274 221° Southwest 431 496 38,000  Level FlightAware ADS-B
Mon 11:38:57 38.4818 -77.6523 221° Southwest 431 496 38,000  Level FlightAware ADS-B (KDAA)
Mon 11:39:23 38.4427 -77.6945 221° Southwest 431 496 38,000  Level FlightAware ADS-B
Mon 11:39:27 38.4365 -77.7012 221° Southwest 431 496 38,000  Level FlightAware ADS-B (KDAA)
Mon 11:39:57 38.3910 -77.7502 221° Southwest 432 497 38,000  Level FlightAware ADS-B (KDAA)
Mon 11:40:05 38.3782 -77.7639 221° Southwest 432 497 38,000  Level FlightAware ADS-B
Mon 11:40:27 38.3440 -77.8006 221° Southwest 431 496 38,000  Level FlightAware ADS-B (KDAA)
Mon 11:40:56 38.3013 -77.8463 221° Southwest 432 497 38,000  Level FlightAware ADS-B (KDAA)
Mon 11:41:06 38.2857 -77.8630 221° Southwest 431 496 38,000  Level FlightAware ADS-B
Mon 11:41:27 38.2543 -77.8966 221° Southwest 432 497 38,000  Level FlightAware ADS-B (KDAA)
Mon 11:41:47 38.2223 -77.9311 221° Southwest 431 496 38,000  Level FlightAware ADS-B
Mon 11:42:41 38.1401 -78.0186 220° Southwest 431 496 38,000  Level FlightAware ADS-B (KCHO)
Mon 11:43:12 38.0927 -78.0690 220° Southwest 430 495 38,000  Level FlightAware ADS-B (KCHO)
Mon 11:43:51 38.0341 -78.1315 220° Southwest 430 495 38,000  Level FlightAware ADS-B (KCHO)
Mon 11:44:27 37.9775 -78.1900 218° Southwest 434 499 38,000  Level FlightAware ADS-B
Mon 11:44:58 37.9272 -78.2370 216° Southwest 438 504 38,000  Level FlightAware ADS-B (KCHO)
Mon 11:45:30 37.8747 -78.2859 217° Southwest 437 503 38,000  Level FlightAware ADS-B (KCHO)
Mon 11:46:01 37.8283 -78.3297 217° Southwest 435 501 38,000  Level FlightAware ADS-B (KCHO)
Mon 11:46:41 37.7612 -78.3935 217° Southwest 433 498 38,000  Level FlightAware ADS-B (KCHO)
Mon 11:47:20 37.6978 -78.4538 217° Southwest 429 494 38,000  Level FlightAware ADS-B (KCHO)
Mon 11:48:06 37.6250 -78.5226 217° Southwest 428 493 38,000  Level FlightAware ADS-B
Mon 11:48:40 37.5752 -78.5697 217° Southwest 429 494 38,000  Level FlightAware ADS-B (KCHO)
Mon 11:49:16 37.5146 -78.6268 217° Southwest 428 493 38,000  Level FlightAware ADS-B (KCHO)
Mon 11:50:04 37.4384 -78.6984 217° Southwest 430 495 38,000  Level FlightAware ADS-B
Mon 11:50:44 37.3743 -78.7584 217° Southwest 429 494 38,000  Level FlightAware ADS-B
Mon 11:51:25 37.3084 -78.8202 217° Southwest 430 495 38,000  Level FlightAware ADS-B
Mon 11:52:06 37.2430 -78.8815 217° Southwest 430 495 38,000  Level FlightAware ADS-B
Mon 11:52:42 37.1853 -78.9353 217° Southwest 432 497 38,000  Level FlightAware ADS-B
Mon 11:53:24 37.1181 -78.9977 217° Southwest 433 498 38,000  Level FlightAware ADS-B
Mon 11:54:07 37.0488 -79.0620 217° Southwest 435 501 38,000  Level FlightAware ADS-B
Mon 11:54:46 36.9841 -79.1218 217° Southwest 438 504 38,000 77 Level FlightAware ADS-B
Mon 11:55:25 36.9209 -79.1801 217° Southwest 438 504 38,100  Climbing FlightAware ADS-B
Mon 11:57:32 36.7130 -79.3717 217° Southwest 438 504 38,000 -28 Descending FlightAware ADS-B
Mon 11:58:57 36.5747 -79.4980 217° Southwest 437 503 38,000  Level FlightAware ADS-B
Mon 12:01:12 36.3590 -79.6940 216° Southwest 437 503 38,000  Level FlightAware ADS-B (EFYL / YLI)
Mon 12:01:55 36.2892 -79.7572 216° Southwest 439 505 38,000  Level FlightAware ADS-B (EFYL / YLI)
Mon 12:02:33 36.2261 -79.8142 216° Southwest 442 509 38,000  Level FlightAware ADS-B (EFYL / YLI)
Mon 12:03:19 36.1507 -79.8822 216° Southwest 443 510 38,000  Level FlightAware ADS-B (EFYL / YLI)
Mon 12:03:59 36.0796 -79.9451 214° Southwest 447 514 38,000  Level FlightAware ADS-B (EFYL / YLI)
Mon 12:04:39 36.0060 -79.9958 206° Southwest 457 526 38,000  Level FlightAware ADS-B (EFYL / YLI)
Mon 12:05:19 35.9352 -80.0322 202° Southwest 462 532 38,000  Level FlightAware ADS-B (EFYL / YLI)
Mon 12:05:59 35.8494 -80.0755 202° Southwest 461 531 38,000  Level FlightAware ADS-B (EFYL / YLI)
Mon 12:06:39 35.7692 -80.1161 202° Southwest 457 526 38,000  Level FlightAware ADS-B (EFYL / YLI)
Mon 12:07:19 35.6948 -80.1537 202° Southwest 460 529 38,000 75 Level FlightAware ADS-B (EFYL / YLI)
Mon 12:07:59 35.6176 -80.1923 202° Southwest 458 527 38,100  Climbing FlightAware ADS-B (EFYL / YLI)
Mon 12:08:39 35.5347 -80.2337 202° Southwest 456 525 38,000 -75 Descending FlightAware ADS-B (EFYL / YLI)
Mon 12:09:19 35.4552 -80.2734 202° Southwest 454 522 38,000  Level FlightAware ADS-B (EFYL / YLI)
Mon 12:09:57 35.3890 -80.3064 202° Southwest 454 522 38,000  Level FlightAware ADS-B (EFYL / YLI)
Mon 12:10:32 35.3329 -80.3343 202° Southwest 454 522 38,000  Level FlightAware ADS-B (EFYL / YLI)
Mon 12:11:13 35.2507 -80.3751 202° Southwest 454 522 38,000  Level FlightAware ADS-B (EFYL / YLI)
Mon 12:11:59 35.1427 -80.4286 202° Southwest 453 521 38,000  Level FlightAware ADS-B (EFYL / YLI)
Mon 12:12:38 35.0732 -80.4630 202° Southwest 454 522 38,000  Level FlightAware ADS-B (EFYL / YLI)
Mon 12:13:19 34.9876 -80.5053 202° Southwest 454 522 38,000  Level FlightAware ADS-B (EFYL / YLI)
Mon 12:13:49 34.9355 -80.5311 202° Southwest 453 521 38,000  Level FlightAware ADS-B (EFYL / YLI)
Mon 12:14:36 34.8427 -80.5767 202° Southwest 453 521 38,000  Level FlightAware ADS-B (EFYL / YLI)
Mon 12:15:10 34.7711 -80.6117 202° Southwest 454 522 38,000  Level FlightAware ADS-B
Mon 12:15:45 34.7033 -80.6448 202° Southwest 454 522 38,000  Level FlightAware ADS-B
Mon 12:16:27 34.6208 -80.6852 202° Southwest 456 525 38,000  Level FlightAware ADS-B
Mon 12:17:31 34.4941 -80.7470 202° Southwest 458 527 38,000  Level FlightAware ADS-B
Mon 12:18:16 34.4063 -80.7896 202° Southwest 458 527 38,000  Level FlightAware ADS-B
Mon 12:18:54 34.3314 -80.8257 202° Southwest 458 527 38,000  Level FlightAware ADS-B
Mon 12:19:25 34.2713 -80.8548 202° Southwest 457 526 38,000  Level FlightAware ADS-B
Mon 12:19:59 34.2028 -80.8880 202° Southwest 458 527 38,000  Level FlightAware ADS-B
Mon 12:20:39 34.1237 -80.9261 202° Southwest 457 526 38,000  Level FlightAware ADS-B
Mon 12:21:18 34.0483 -80.9624 202° Southwest 456 525 38,000  Level FlightAware ADS-B
Mon 12:21:50 33.9854 -80.9928 202° Southwest 455 524 38,000  Level FlightAware ADS-B
Mon 12:22:35 33.8984 -81.0345 202° Southwest 451 519 38,000  Level FlightAware ADS-B
Mon 12:23:19 33.8120 -81.0760 202° Southwest 447 514 38,000  Level FlightAware ADS-B
Mon 12:24:04 33.7261 -81.1189 203° Southwest 446 513 38,000  Level FlightAware ADS-B
Mon 12:24:48 33.6427 -81.1605 203° Southwest 447 514 38,000  Level FlightAware ADS-B
Mon 12:25:46 33.5320 -81.2151 202° Southwest 451 519 38,000  Level FlightAware ADS-B
Mon 12:26:18 33.4731 -81.2467 202° Southwest 453 521 38,000  Level Jacksonville Center
Mon 12:27:18 33.3589 -81.3061 204° Southwest 453 521 38,000  Level Jacksonville Center
Mon 12:28:18 33.2614 -81.3500 201° Southwest 453 521 38,000 -50 Level Jacksonville Center
Mon 12:29:18 33.1244 -81.4167 202° Southwest 453 521 37,900  Descending Jacksonville Center
Mon 12:30:18 33.0083 -81.4731 202° Southwest 453 521 38,000 50 Climbing Jacksonville Center
Mon 12:31:18 32.8942 -81.5294 203° Southwest 453 521 38,000  Level Jacksonville Center
Mon 12:32:18 32.7797 -81.5856 202° Southwest 453 521 38,000  Level Jacksonville Center
Mon 12:33:18 32.6656 -81.6414 202° Southwest 453 521 38,000  Level Jacksonville Center
Mon 12:34:18 32.5514 -81.6947 201° Southwest 447 514 38,000  Level Jacksonville Center
Mon 12:35:18 32.4472 -81.7453 202° Southwest 447 514 38,000  Level Jacksonville Center
Mon 12:36:18 32.3183 -81.8061 202° Southwest 452 520 38,000  Level Jacksonville Center
Mon 12:37:18 32.2144 -81.8564 202° Southwest 452 520 38,000  Level Jacksonville Center
Mon 12:38:18 32.0833 -81.9192 202° Southwest 452 520 38,000  Level Jacksonville Center
Mon 12:39:18 31.9692 -81.9717 201° Southwest 446 513 38,000  Level Jacksonville Center
Mon 12:40:18 31.8733 -82.0411 212° Southwest 445 512 38,000  Level Jacksonville Center
Mon 12:41:18 31.7675 -82.1400 218° Southwest 450 518 38,000  Level Jacksonville Center
Mon 12:42:18 31.6803 -82.2189 218° Southwest 450 518 38,000  Level Jacksonville Center
Mon 12:43:18 31.5828 -82.3072 218° Southwest 450 518 38,000  Level Jacksonville Center
Mon 12:44:18 31.4767 -82.4031 218° Southwest 445 512 38,000  Level Jacksonville Center
Mon 12:45:18 31.3808 -82.4911 218° Southwest 445 512 38,000  Level Jacksonville Center
Mon 12:46:18 31.2872 -82.5594 212° Southwest 445 512 38,000 -87 Level Jacksonville Center
Mon 12:52:14 30.5271 -82.5532 179° South 448 516 37,400 -123 Descending FlightAware ADS-B
Mon 12:54:25 30.2506 -82.4989 170° South 456 525 37,000 -371 Descending FlightAware ADS-B
Mon 12:55:28 30.1189 -82.4709 169° South 457 526 36,200 -841 Descending FlightAware ADS-B
Mon 12:56:12 30.0349 -82.4529 170° South 464 534 35,500 -1,833 Descending FlightAware ADS-B
Mon 12:57:16 29.8994 -82.4245 170° South 464 534 32,900 -2,481 Descending FlightAware ADS-B
Mon 12:57:56 29.8063 -82.4048 170° South 455 524 31,200 -2,495 Descending FlightAware ADS-B
Mon 12:58:57 29.6841 -82.3792 170° South 440 506 28,700 -2,268 Descending FlightAware ADS-B
Mon 13:00:03 29.5516 -82.3545 174° South 420 483 26,400 -2,019 Descending FlightAware ADS-B
Mon 13:00:44 29.4733 -82.3451 174° South 407 468 25,100 -1,707 Descending FlightAware ADS-B
Mon 13:02:06 29.3211 -82.3269 174° South 401 461 22,900 -1,700 Descending FlightAware ADS-B
Mon 13:02:44 29.2548 -82.3189 174° South 389 448 21,700 -1,816 Descending FlightAware ADS-B
Mon 13:03:22 29.1869 -82.3107 174° South 380 437 20,600 -1,867 Descending FlightAware ADS-B
Mon 13:04:59 29.0196 -82.2910 174° South 362 417 17,500 -1,897 Descending FlightAware ADS-B
Mon 13:05:38 28.9560 -82.2835 174° South 350 403 16,300 -1,624 Descending FlightAware ADS-B
Mon 13:06:24 28.9417 -82.2818 174° South 345 397 15,200 -1,527 Descending FlightAware ADS-B
Mon 13:07:28 28.7814 -82.2628 174° South 338 389 13,500 -885 Descending FlightAware ADS-B
Mon 13:09:27 28.5958 -82.2555 179° South 333 383 12,500 -556 Descending FlightAware ADS-B
Mon 13:09:59 28.5498 -82.2573 194° South 334 384 12,100 -923 Descending FlightAware ADS-B
Mon 13:10:19 28.5246 -82.2725 226° Southwest 340 391 11,700 -635 Descending FlightAware ADS-B
Mon 13:13:27 28.4382 -82.5876 255° West 332 382 9,900 -459 Descending FlightAware ADS-B
Mon 13:14:01 28.4333 -82.6333 255° West 324 373 10,000 68 Climbing Tampa TRACON
Mon 13:14:55 28.4000 -82.7333 249° West 325 374 10,000 -53 Level Tampa TRACON
Mon 13:15:55 28.3333 -82.7667 204° Southwest 321 369 9,900 -500 Descending Tampa TRACON
Mon 13:16:55 28.2500 -82.7833 190° South 287 330 9,000 -1,150 Descending Tampa TRACON
Mon 13:17:55 28.1667 -82.8000 190° South 282 325 7,600 -1,364 Descending Tampa TRACON
Mon 13:19:07 28.0833 -82.8000 180° South 266 306 6,000 -1,381 Descending Tampa TRACON
Mon 13:20:01 28.0167 -82.7833 168° South 262 302 4,700 -1,176 Descending Tampa TRACON
Mon 13:20:49 27.9500 -82.7667 168° South 248 285 4,000 -495 Descending Tampa TRACON
Mon 13:21:50 27.9000 -82.7667 180° South 209 241 3,800 -722 Descending Tampa TRACON
Mon 13:23:02 27.8333 -82.7500 168° South 182 209 2,400 -1,050 Descending Tampa TRACON
Mon 13:23:50 27.8333 -82.7000 90° East 159 183 1,700 -944 Descending Tampa TRACON
Mon 13:24:50 27.8667 -82.6833 24° Northeast 129 148 700 -1,000 Descending Tampa TRACON
Mon 13:26:00 27.9000 -82.6833 310° West  Level FlightAware Approximate
Mon 13:33:00 27.9100 -82.6875 310° West  Level Estimated
Mon 13:34:00 27.9100 -82.6875 310° West  Level Estimated

Login

Don't have an account? Register now (free) for customized features, flight alerts, and more!